sensor_id;sensor_type;location;lat;lon;timestamp;pressure;altitude;pressure_sealevel;temperature;humidity
43681;BME280;29281;50.356;30.894;2023-04-02T00:00:25;99014.91;;;10.23;100.00
43681;BME280;29281;50.356;30.894;2023-04-02T00:07:37;99016.66;;;10.34;100.00
43681;BME280;29281;50.356;30.894;2023-04-02T00:08:43;99016.08;;;10.31;100.00
43681;BME280;29281;50.356;30.894;2023-04-02T00:09:46;99016.33;;;10.28;100.00
43681;BME280;29281;50.356;30.894;2023-04-02T00:10:59;99013.94;;;10.25;100.00
43681;BME280;29281;50.356;30.894;2023-04-02T00:12:12;99014.14;;;10.33;100.00
43681;BME280;29281;50.356;30.894;2023-04-02T00:13:30;99016.74;;;10.23;100.00
43681;BME280;29281;50.356;30.894;2023-04-02T00:14:33;99012.25;;;10.23;100.00
43681;BME280;29281;50.356;30.894;2023-04-02T00:15:38;99006.61;;;10.17;100.00
43681;BME280;29281;50.356;30.894;2023-04-02T00:16:43;99015.08;;;10.11;100.00
43681;BME280;29281;50.356;30.894;2023-04-02T00:17:45;99017.48;;;10.14;100.00
43681;BME280;29281;50.356;30.894;2023-04-02T00:18:51;99011.08;;;10.16;100.00
43681;BME280;29281;50.356;30.894;2023-04-02T00:19:59;99007.96;;;10.11;100.00
43681;BME280;29281;50.356;30.894;2023-04-02T00:21:18;99013.85;;;10.15;100.00
43681;BME280;29281;50.356;30.894;2023-04-02T00:22:24;99011.08;;;10.16;100.00
43681;BME280;29281;50.356;30.894;2023-04-02T00:23:27;99010.85;;;10.19;100.00
43681;BME280;29281;50.356;30.894;2023-04-02T00:24:32;99011.82;;;10.18;100.00
43681;BME280;29281;50.356;30.894;2023-04-02T00:25:36;99010.61;;;10.11;100.00
43681;BME280;29281;50.356;30.894;2023-04-02T00:26:45;99019.16;;;10.15;100.00
43681;BME280;29281;50.356;30.894;2023-04-02T00:27:49;99010.87;;;10.08;100.00
43681;BME280;29281;50.356;30.894;2023-04-02T00:28:55;99014.65;;;10.06;100.00
43681;BME280;29281;50.356;30.894;2023-04-02T00:29:59;99015.08;;;10.11;100.00
43681;BME280;29281;50.356;30.894;2023-04-02T00:31:03;99013.93;;;10.04;100.00
43681;BME280;29281;50.356;30.894;2023-04-02T00:32:08;99010.56;;;10.02;100.00
43681;BME280;29281;50.356;30.894;2023-04-02T00:33:14;99009.72;;;10.01;100.00
43681;BME280;29281;50.356;30.894;2023-04-02T00:34:30;99017.42;;;10.04;100.00
43681;BME280;29281;50.356;30.894;2023-04-02T00:35:35;99014.77;;;10.04;100.00
43681;BME280;29281;50.356;30.894;2023-04-02T00:36:38;99014.65;;;10.06;100.00
43681;BME280;29281;50.356;30.894;2023-04-02T00:37:43;99012.84;;;10.06;100.00
43681;BME280;29281;50.356;30.894;2023-04-02T00:38:47;99013.09;;;10.03;100.00
43681;BME280;29281;50.356;30.894;2023-04-02T00:39:53;99013.67;;;10.07;100.00
43681;BME280;29281;50.356;30.894;2023-04-02T00:40:57;99018.70;;;10.10;100.00
43681;BME280;29281;50.356;30.894;2023-04-02T00:42:02;99012.84;;;10.06;100.00
43681;BME280;29281;50.356;30.894;2023-04-02T00:43:09;99008.50;;;10.05;100.00
43681;BME280;29281;50.356;30.894;2023-04-02T00:44:15;99005.00;;;10.05;100.00
43681;BME280;29281;50.356;30.894;2023-04-02T00:46:30;99009.72;;;10.01;100.00
43681;BME280;29281;50.356;30.894;2023-04-02T00:47:36;99013.22;;;10.02;100.00
43681;BME280;29281;50.356;30.894;2023-04-02T00:48:58;99015.61;;;10.05;100.00
43681;BME280;29281;50.356;30.894;2023-04-02T00:50:07;99013.47;;;9.99;100.00
43681;BME280;29281;50.356;30.894;2023-04-02T00:52:27;99022.64;;;9.95;100.00
43681;BME280;29281;50.356;30.894;2023-04-02T00:53:31;99014.69;;;9.95;100.00
43681;BME280;29281;50.356;30.894;2023-04-02T00:54:37;99021.36;;;9.89;100.00
43681;BME280;29281;50.356;30.894;2023-04-02T00:55:39;99015.28;;;9.98;100.00
43681;BME280;29281;50.356;30.894;2023-04-02T00:56:43;99019.15;;;9.94;100.00
43681;BME280;29281;50.356;30.894;2023-04-02T00:57:49;99014.97;;;9.92;100.00
43681;BME280;29281;50.356;30.894;2023-04-02T00:58:55;99011.66;;;9.99;100.00
43681;BME280;29281;50.356;30.894;2023-04-02T01:00:09;99017.75;;;9.90;100.00
43681;BME280;29281;50.356;30.894;2023-04-02T01:01:18;99007.14;;;9.90;100.00
43681;BME280;29281;50.356;30.894;2023-04-02T01:02:29;99021.61;;;9.86;100.00
43681;BME280;29281;50.356;30.894;2023-04-02T01:03:33;99018.64;;;10.00;100.00
43681;BME280;29281;50.356;30.894;2023-04-02T01:04:39;99016.12;;;9.99;100.00
43681;BME280;29281;50.356;30.894;2023-04-02T01:05:43;99013.09;;;10.03;100.00
43681;BME280;29281;50.356;30.894;2023-04-02T01:06:47;99020.08;;;10.04;100.00
43681;BME280;29281;50.356;30.894;2023-04-02T01:12:26;99012.96;;;10.05;100.00
43681;BME280;29281;50.356;30.894;2023-04-02T01:13:32;99014.65;;;10.06;100.00
43681;BME280;29281;50.356;30.894;2023-04-02T01:41:00;99024.79;;;10.01;100.00
43681;BME280;29281;50.356;30.894;2023-04-02T01:42:17;99031.06;;;10.00;100.00
43681;BME280;29281;50.356;30.894;2023-04-02T01:44:45;99023.57;;;10.05;100.00
43681;BME280;29281;50.356;30.894;2023-04-02T01:45:51;99026.09;;;10.06;100.00
43681;BME280;29281;50.356;30.894;2023-04-02T01:46:54;99022.73;;;10.04;100.00
43681;BME280;29281;50.356;30.894;2023-04-02T01:48:00;99027.91;;;10.06;100.00
43681;BME280;29281;50.356;30.894;2023-04-02T01:49:09;99023.32;;;10.08;100.00
43681;BME280;29281;50.356;30.894;2023-04-02T01:50:26;99025.63;;;10.01;100.00
43681;BME280;29281;50.356;30.894;2023-04-02T01:51:32;99030.56;;;10.06;100.00
43681;BME280;29281;50.356;30.894;2023-04-02T01:52:42;99024.13;;;10.08;100.00
43681;BME280;29281;50.356;30.894;2023-04-02T01:53:42;99027.63;;;10.09;100.00
43681;BME280;29281;50.356;30.894;2023-04-02T01:54:46;99028.34;;;10.11;100.00
43681;BME280;29281;50.356;30.894;2023-04-02T01:55:52;99026.94;;;10.07;100.00
43681;BME280;29281;50.356;30.894;2023-04-02T01:56:56;99030.15;;;10.10;100.00
43681;BME280;29281;50.356;30.894;2023-04-02T01:58:00;99026.66;;;10.10;100.00
43681;BME280;29281;50.356;30.894;2023-04-02T01:59:04;99030.44;;;10.07;100.00
43681;BME280;29281;50.356;30.894;2023-04-02T02:00:11;99028.62;;;10.08;100.00
43681;BME280;29281;50.356;30.894;2023-04-02T02:01:19;99029.31;;;10.10;100.00
43681;BME280;29281;50.356;30.894;2023-04-02T02:02:26;99025.69;;;10.11;100.00
43681;BME280;29281;50.356;30.894;2023-04-02T02:03:30;99030.56;;;10.06;100.00
43681;BME280;29281;50.356;30.894;2023-04-02T02:04:36;99024.28;;;10.07;100.00
43681;BME280;29281;50.356;30.894;2023-04-02T02:05:41;99034.81;;;9.97;100.00
43681;BME280;29281;50.356;30.894;2023-04-02T02:06:46;99032.75;;;10.01;100.00
43681;BME280;29281;50.356;30.894;2023-04-02T02:07:50;99035.53;;;9.99;100.00
43681;BME280;29281;50.356;30.894;2023-04-02T02:08:55;99036.50;;;9.98;100.00
43681;BME280;29281;50.356;30.894;2023-04-02T02:09:59;99020.83;;;9.95;100.00
43681;BME280;29281;50.356;30.894;2023-04-02T02:11:04;99031.31;;;9.97;100.00
43681;BME280;29281;50.356;30.894;2023-04-02T02:12:08;99034.69;;;9.99;100.00
43681;BME280;29281;50.356;30.894;2023-04-02T02:13:13;99031.06;;;10.00;100.00
43681;BME280;29281;50.356;30.894;2023-04-02T02:14:23;99028.48;;;9.88;100.00
43681;BME280;29281;50.356;30.894;2023-04-02T02:15:25;99031.31;;;9.97;100.00
43681;BME280;29281;50.356;30.894;2023-04-02T02:16:28;99029.38;;;9.99;100.00
43681;BME280;29281;50.356;30.894;2023-04-02T02:17:34;99031.00;;;9.90;100.00
43681;BME280;29281;50.356;30.894;2023-04-02T02:18:38;99026.92;;;9.86;100.00
43681;BME280;29281;50.356;30.894;2023-04-02T02:19:46;99027.30;;;9.81;100.00
43681;BME280;29281;50.356;30.894;2023-04-02T02:20:51;99030.88;;;9.92;100.00
43681;BME280;29281;50.356;30.894;2023-04-02T02:21:56;99025.95;;;9.87;100.00
43681;BME280;29281;50.356;30.894;2023-04-02T02:23:01;99022.77;;;9.93;100.00
43681;BME280;29281;50.356;30.894;2023-04-02T02:24:06;99026.80;;;9.87;100.00
43681;BME280;29281;50.356;30.894;2023-04-02T02:25:24;99029.07;;;9.92;100.00
43681;BME280;29281;50.356;30.894;2023-04-02T02:26:30;99024.86;;;9.90;100.00
43681;BME280;29281;50.356;30.894;2023-04-02T02:27:41;99022.58;;;9.85;100.00
43681;BME280;29281;50.356;30.894;2023-04-02T02:28:42;99027.52;;;9.90;100.00
43681;BME280;29281;50.356;30.894;2023-04-02T02:29:55;99026.42;;;9.92;100.00
43681;BME280;29281;50.356;30.894;2023-04-02T02:31:04;99028.73;;;9.85;100.00
43681;BME280;29281;50.356;30.894;2023-04-02T02:32:09;99026.08;;;9.85;100.00
43681;BME280;29281;50.356;30.894;2023-04-02T02:33:19;99031.72;;;9.92;100.00
43681;BME280;29281;50.356;30.894;2023-04-02T02:34:30;99029.07;;;9.92;100.00
43681;BME280;29281;50.356;30.894;2023-04-02T02:35:42;99030.88;;;9.92;100.00
43681;BME280;29281;50.356;30.894;2023-04-02T02:36:52;99028.48;;;9.88;100.00
43681;BME280;29281;50.356;30.894;2023-04-02T02:38:16;99026.42;;;9.92;100.00
43681;BME280;29281;50.356;30.894;2023-04-02T02:40:26;99028.07;;;9.93;100.00
43681;BME280;29281;50.356;30.894;2023-04-02T02:42:44;99027.95;;;9.95;100.00
43681;BME280;29281;50.356;30.894;2023-04-02T02:43:51;99031.72;;;9.92;100.00
43681;BME280;29281;50.356;30.894;2023-04-02T02:44:53;99033.00;;;9.98;100.00
43681;BME280;29281;50.356;30.894;2023-04-02T02:45:58;99030.34;;;9.98;100.00
43681;BME280;29281;50.356;30.894;2023-04-02T02:47:07;99038.25;;;9.88;100.00
43681;BME280;29281;50.356;30.894;2023-04-02T02:48:10;99035.97;;;9.83;100.00
43681;BME280;29281;50.356;30.894;2023-04-02T02:49:15;99032.81;;;9.90;100.00
43681;BME280;29281;50.356;30.894;2023-04-02T02:50:23;99034.09;;;9.95;100.00
43681;BME280;29281;50.356;30.894;2023-04-02T02:51:38;99027.11;;;9.94;100.00
43681;BME280;29281;50.356;30.894;2023-04-02T02:52:34;99036.88;;;9.94;100.00
43681;BME280;29281;50.356;30.894;2023-04-02T02:53:52;99040.17;;;9.86;100.00
43681;BME280;29281;50.356;30.894;2023-04-02T02:54:59;99037.46;;;9.76;100.00
43681;BME280;29281;50.356;30.894;2023-04-02T02:56:02;99030.66;;;9.83;100.00
43681;BME280;29281;50.356;30.894;2023-04-02T02:57:08;99034.46;;;9.70;100.00
43681;BME280;29281;50.356;30.894;2023-04-02T02:58:14;99033.13;;;9.75;100.00
43681;BME280;29281;50.356;30.894;2023-04-02T02:59:21;99043.80;;;9.85;100.00
43681;BME280;29281;50.356;30.894;2023-04-02T03:00:24;99030.72;;;9.93;100.00
43681;BME280;29281;50.356;30.894;2023-04-02T03:01:28;99037.59;;;9.96;100.00
43681;BME280;29281;50.356;30.894;2023-04-02T03:02:35;99038.25;;;9.88;100.00
43681;BME280;29281;50.356;30.894;2023-04-02T03:03:39;99039.09;;;9.88;100.00
43681;BME280;29281;50.356;30.894;2023-04-02T03:04:49;99031.44;;;9.95;100.00
43681;BME280;29281;50.356;30.894;2023-04-02T03:05:53;99041.73;;;9.88;100.00
43681;BME280;29281;50.356;30.894;2023-04-02T03:07:03;99038.13;;;9.90;100.00
43681;BME280;29281;50.356;30.894;2023-04-02T03:08:13;99038.86;;;9.80;100.00
43681;BME280;29281;50.356;30.894;2023-04-02T03:10:29;99040.89;;;9.88;100.00
43681;BME280;29281;50.356;30.894;2023-04-02T03:11:52;99042.58;;;9.89;100.00
43681;BME280;29281;50.356;30.894;2023-04-02T03:14:15;99046.38;;;9.75;100.00
43681;BME280;29281;50.356;30.894;2023-04-02T03:15:26;99042.11;;;9.84;100.00
43681;BME280;29281;50.356;30.894;2023-04-02T03:20:00;99052.09;;;9.92;100.00
43681;BME280;29281;50.356;30.894;2023-04-02T03:22:22;99052.25;;;9.79;100.00
43681;BME280;29281;50.356;30.894;2023-04-02T03:23:27;99046.82;;;9.80;100.00
43681;BME280;29281;50.356;30.894;2023-04-02T03:26:03;99054.34;;;9.96;100.00
43681;BME280;29281;50.356;30.894;2023-04-02T03:27:17;99048.75;;;9.78;100.00
43681;BME280;29281;50.356;30.894;2023-04-02T03:28:22;99054.45;;;9.74;100.00
43681;BME280;29281;50.356;30.894;2023-04-02T03:29:32;99052.17;;;9.69;100.00
43681;BME280;29281;50.356;30.894;2023-04-02T03:31:52;99048.06;;;9.76;100.00
43681;BME280;29281;50.356;30.894;2023-04-02T03:32:56;99054.05;;;9.78;100.00
43681;BME280;29281;50.356;30.894;2023-04-02T03:34:15;99048.50;;;9.81;100.00
43681;BME280;29281;50.356;30.894;2023-04-02T03:36:19;99057.42;;;9.80;100.00
43681;BME280;29281;50.356;30.894;2023-04-02T03:37:29;99056.93;;;9.86;100.00
43681;BME280;29281;50.356;30.894;2023-04-02T03:38:33;99052.72;;;9.84;100.00
43681;BME280;29281;50.356;30.894;2023-04-02T03:39:40;99054.16;;;9.88;100.00
43681;BME280;29281;50.356;30.894;2023-04-02T03:41:32;99055.84;;;9.89;100.00
43681;BME280;29281;50.356;30.894;2023-04-02T03:42:00;99049.22;;;9.83;100.00
43681;BME280;29281;50.356;30.894;2023-04-02T03:43:14;99052.59;;;9.85;100.00
43681;BME280;29281;50.356;30.894;2023-04-02T03:44:14;99058.37;;;9.91;100.00
43681;BME280;29281;50.356;30.894;2023-04-02T03:45:15;99062.83;;;9.90;100.00
43681;BME280;29281;50.356;30.894;2023-04-02T03:47:41;99059.58;;;9.86;100.00
43681;BME280;29281;50.356;30.894;2023-04-02T03:48:45;99063.92;;;9.87;100.00
43681;BME280;29281;50.356;30.894;2023-04-02T03:49:54;99067.05;;;9.93;100.00
43681;BME280;29281;50.356;30.894;2023-04-02T03:52:27;99071.93;;;9.76;100.00
43681;BME280;29281;50.356;30.894;2023-04-02T03:53:30;99074.77;;;9.84;100.00
43681;BME280;29281;50.356;30.894;2023-04-02T03:54:34;99071.65;;;9.79;100.00
43681;BME280;29281;50.356;30.894;2023-04-02T03:55:39;99069.72;;;9.81;100.00
43681;BME280;29281;50.356;30.894;2023-04-02T03:56:44;99068.75;;;9.82;100.00
43681;BME280;29281;50.356;30.894;2023-04-02T03:59:02;99079.48;;;9.81;100.00
43681;BME280;29281;50.356;30.894;2023-04-02T04:00:07;99068.55;;;9.74;100.00
43681;BME280;29281;50.356;30.894;2023-04-02T04:01:15;99077.23;;;9.76;100.00
43681;BME280;29281;50.356;30.894;2023-04-02T04:02:34;99075.02;;;9.81;100.00
43681;BME280;29281;50.356;30.894;2023-04-02T04:03:48;99076.70;;;9.82;100.00
43681;BME280;29281;50.356;30.894;2023-04-02T04:04:52;99077.30;;;9.86;100.00
43681;BME280;29281;50.356;30.894;2023-04-02T04:05:58;99080.80;;;9.86;100.00
43681;BME280;29281;50.356;30.894;2023-04-02T04:07:02;99075.61;;;9.85;100.00
43681;BME280;29281;50.356;30.894;2023-04-02T04:08:07;99075.02;;;9.81;100.00
43681;BME280;29281;50.356;30.894;2023-04-02T04:09:18;99069.28;;;9.76;100.00
43681;BME280;29281;50.356;30.894;2023-04-02T04:10:21;99082.25;;;9.79;100.00
43681;BME280;29281;50.356;30.894;2023-04-02T04:11:29;99083.57;;;9.85;100.00
43681;BME280;29281;50.356;30.894;2023-04-02T04:12:35;99079.30;;;9.94;100.00
43681;BME280;29281;50.356;30.894;2023-04-02T04:13:40;99082.11;;;9.92;100.00
43681;BME280;29281;50.356;30.894;2023-04-02T04:14:47;99081.95;;;9.94;100.00
43681;BME280;29281;50.356;30.894;2023-04-02T04:15:57;99082.23;;;9.91;100.00
43681;BME280;29281;50.356;30.894;2023-04-02T04:17:03;99084.41;;;9.85;100.00
43681;BME280;29281;50.356;30.894;2023-04-02T04:19:42;99091.94;;;9.69;100.00
43681;BME280;29281;50.356;30.894;2023-04-02T04:20:57;99084.53;;;9.84;100.00
43681;BME280;29281;50.356;30.894;2023-04-02T04:22:14;99090.56;;;9.86;100.00
43681;BME280;29281;50.356;30.894;2023-04-02T04:23:17;99088.50;;;9.90;100.00
43681;BME280;29281;50.356;30.894;2023-04-02T04:24:23;99089.22;;;9.92;100.00
43681;BME280;29281;50.356;30.894;2023-04-02T04:25:28;99096.46;;;9.90;100.00
43681;BME280;29281;50.356;30.894;2023-04-02T04:26:43;99094.05;;;9.86;100.00
43681;BME280;29281;50.356;30.894;2023-04-02T04:29:16;99088.09;;;9.94;100.00
43681;BME280;29281;50.356;30.894;2023-04-02T04:30:29;99088.70;;;9.98;100.00
43681;BME280;29281;50.356;30.894;2023-04-02T04:31:34;99098.94;;;10.02;100.00
43681;BME280;29281;50.356;30.894;2023-04-02T04:32:49;99092.41;;;10.06;100.00
43681;BME280;29281;50.356;30.894;2023-04-02T04:33:56;99092.56;;;9.94;100.00
43681;BME280;29281;50.356;30.894;2023-04-02T04:35:19;99088.50;;;9.90;100.00
43681;BME280;29281;50.356;30.894;2023-04-02T04:36:26;99092.24;;;9.87;100.00
43681;BME280;29281;50.356;30.894;2023-04-02T04:37:35;99097.74;;;9.95;100.00
43681;BME280;29281;50.356;30.894;2023-04-02T04:38:45;99100.98;;;9.99;100.00
43681;BME280;29281;50.356;30.894;2023-04-02T04:39:56;99093.41;;;9.94;100.00
43681;BME280;29281;50.356;30.894;2023-04-02T04:41:12;99099.55;;;9.95;100.00
43681;BME280;29281;50.356;30.894;2023-04-02T04:42:16;99100.49;;;10.05;100.00
43681;BME280;29281;50.356;30.894;2023-04-02T04:43:25;99102.20;;;9.95;100.00
43681;BME280;29281;50.356;30.894;2023-04-02T04:44:31;99095.09;;;9.95;100.00
43681;BME280;29281;50.356;30.894;2023-04-02T04:45:40;99095.09;;;9.95;100.00
43681;BME280;29281;50.356;30.894;2023-04-02T04:48:05;99098.81;;;10.04;100.00
43681;BME280;29281;50.356;30.894;2023-04-02T04:50:17;99099.72;;;10.14;100.00
43681;BME280;29281;50.356;30.894;2023-04-02T04:51:21;99096.28;;;10.02;100.00
43681;BME280;29281;50.356;30.894;2023-04-02T04:52:34;99095.75;;;10.08;100.00
43681;BME280;29281;50.356;30.894;2023-04-02T04:54:59;99098.03;;;10.13;100.00
43681;BME280;29281;50.356;30.894;2023-04-02T04:56:03;99102.90;;;10.08;100.00
43681;BME280;29281;50.356;30.894;2023-04-02T04:58:47;99100.93;;;10.10;100.00
43681;BME280;29281;50.356;30.894;2023-04-02T04:59:55;99102.33;;;9.93;100.00
43681;BME280;29281;50.356;30.894;2023-04-02T05:01:02;99102.42;;;10.03;100.00
43681;BME280;29281;50.356;30.894;2023-04-02T05:02:05;99099.41;;;10.07;100.00
43681;BME280;29281;50.356;30.894;2023-04-02T05:03:14;99106.70;;;10.15;100.00
43681;BME280;29281;50.356;30.894;2023-04-02T05:04:21;99104.77;;;10.17;100.00
43681;BME280;29281;50.356;30.894;2023-04-02T05:05:30;99104.30;;;10.12;100.00
43681;BME280;29281;50.356;30.894;2023-04-02T05:07:49;99106.23;;;10.10;100.00
43681;BME280;29281;50.356;30.894;2023-04-02T05:08:54;99104.42;;;10.21;100.00
43681;BME280;29281;50.356;30.894;2023-04-02T05:11:44;99105.83;;;10.26;100.00
43681;BME280;29281;50.356;30.894;2023-04-02T05:12:31;99105.95;;;10.24;100.00
43681;BME280;29281;50.356;30.894;2023-04-02T05:13:53;99106.89;;;10.34;100.00
43681;BME280;29281;50.356;30.894;2023-04-02T05:14:59;99105.33;;;10.32;100.00
43681;BME280;29281;50.356;30.894;2023-04-02T05:17:38;99109.86;;;10.20;100.00
43681;BME280;29281;50.356;30.894;2023-04-02T05:18:51;99109.67;;;10.33;100.00
43681;BME280;29281;50.356;30.894;2023-04-02T05:20:04;99112.50;;;10.41;100.00
43681;BME280;29281;50.356;30.894;2023-04-02T05:22:48;99106.67;;;10.26;100.00
43681;BME280;29281;50.356;30.894;2023-04-02T05:23:58;99105.45;;;10.30;100.00
43681;BME280;29281;50.356;30.894;2023-04-02T05:26:19;99103.86;;;10.39;100.00
43681;BME280;29281;50.356;30.894;2023-04-02T05:27:24;99106.64;;;10.37;100.00
43681;BME280;29281;50.356;30.894;2023-04-02T05:29:50;99103.78;;;10.50;100.00
43681;BME280;29281;50.356;30.894;2023-04-02T05:30:55;99113.62;;;10.38;100.00
43681;BME280;29281;50.356;30.894;2023-04-02T05:32:00;99111.16;;;10.46;100.00
43681;BME280;29281;50.356;30.894;2023-04-02T05:34:22;99110.36;;;10.55;100.00
43681;BME280;29281;50.356;30.894;2023-04-02T05:35:28;99111.28;;;10.45;100.00
43681;BME280;29281;50.356;30.894;2023-04-02T05:36:34;99110.81;;;10.40;100.00
43681;BME280;29281;50.356;30.894;2023-04-02T05:37:38;99114.27;;;10.51;100.00
43681;BME280;29281;50.356;30.894;2023-04-02T05:38:47;99107.99;;;10.52;100.00
43681;BME280;29281;50.356;30.894;2023-04-02T05:39:55;99109.39;;;10.56;100.00
43681;BME280;29281;50.356;30.894;2023-04-02T05:41:13;99116.13;;;10.61;100.00
43681;BME280;29281;50.356;30.894;2023-04-02T05:42:15;99110.95;;;10.59;100.00
43681;BME280;29281;50.356;30.894;2023-04-02T05:43:24;99122.94;;;10.33;100.00
43681;BME280;29281;50.356;30.894;2023-04-02T05:44:30;99122.69;;;10.36;100.00
43681;BME280;29281;50.356;30.894;2023-04-02T05:45:36;99120.47;;;10.41;100.00
43681;BME280;29281;50.356;30.894;2023-04-02T05:46:44;99113.98;;;10.54;100.00
43681;BME280;29281;50.356;30.894;2023-04-02T05:47:47;99119.25;;;10.66;100.00
43681;BME280;29281;50.356;30.894;2023-04-02T05:48:54;99125.61;;;10.53;100.00
43681;BME280;29281;50.356;30.894;2023-04-02T05:50:09;99119.37;;;10.43;100.00
43681;BME280;29281;50.356;30.894;2023-04-02T05:51:13;99121.44;;;10.40;100.00
43681;BME280;29281;50.356;30.894;2023-04-02T05:52:19;99125.22;;;10.37;100.00
43681;BME280;29281;50.356;30.894;2023-04-02T05:53:29;99123.89;;;10.00;100.00
43681;BME280;29281;50.356;30.894;2023-04-02T05:54:36;99123.25;;;10.18;100.00
43681;BME280;29281;50.356;30.894;2023-04-02T05:55:44;99121.84;;;10.35;100.00
43681;BME280;29281;50.356;30.894;2023-04-02T05:56:45;99122.87;;;10.44;100.00
43681;BME280;29281;50.356;30.894;2023-04-02T05:57:55;99122.59;;;10.26;100.00
43681;BME280;29281;50.356;30.894;2023-04-02T06:00:14;99118.72;;;10.30;100.00
43681;BME280;29281;50.356;30.894;2023-04-02T06:02:29;99125.77;;;10.41;100.00
43681;BME280;29281;50.356;30.894;2023-04-02T06:05:06;99124.67;;;10.43;100.00
43681;BME280;29281;50.356;30.894;2023-04-02T06:06:26;99127.08;;;10.46;100.00
43681;BME280;29281;50.356;30.894;2023-04-02T06:07:50;99133.86;;;10.18;100.00
43681;BME280;29281;50.356;30.894;2023-04-02T06:08:41;99132.83;;;10.31;100.00
43681;BME280;29281;50.356;30.894;2023-04-02T06:09:47;99136.14;;;10.44;100.00
43681;BME280;29281;50.356;30.894;2023-04-02T06:10:54;99128.55;;;10.39;100.00
43681;BME280;29281;50.356;30.894;2023-04-02T06:12:21;99127.46;;;10.42;100.00
43681;BME280;29281;50.356;30.894;2023-04-02T06:13:27;99137.45;;;10.17;100.00
43681;BME280;29281;50.356;30.894;2023-04-02T06:14:28;99130.12;;;10.21;100.00
43681;BME280;29281;50.356;30.894;2023-04-02T06:15:35;99138.64;;;10.25;100.00
43681;BME280;29281;50.356;30.894;2023-04-02T06:16:43;99131.36;;;10.38;100.00
43681;BME280;29281;50.356;30.894;2023-04-02T06:17:51;99134.20;;;10.46;100.00
43681;BME280;29281;50.356;30.894;2023-04-02T06:18:52;99138.88;;;10.53;100.00
43681;BME280;29281;50.356;30.894;2023-04-02T06:19:55;99132.44;;;10.56;100.00
43681;BME280;29281;50.356;30.894;2023-04-02T06:21:00;99140.03;;;10.61;100.00
43681;BME280;29281;50.356;30.894;2023-04-02T06:23:32;99140.81;;;10.51;100.00
43681;BME280;29281;50.356;30.894;2023-04-02T06:24:39;99142.63;;;10.51;100.00
43681;BME280;29281;50.356;30.894;2023-04-02T06:26:00;99144.23;;;10.42;100.00
43681;BME280;29281;50.356;30.894;2023-04-02T06:27:04;99149.88;;;10.49;100.00
43681;BME280;29281;50.356;30.894;2023-04-02T06:28:14;99150.78;;;10.38;100.00
43681;BME280;29281;50.356;30.894;2023-04-02T06:29:33;99144.81;;;10.46;100.00
43681;BME280;29281;50.356;30.894;2023-04-02T06:30:39;99149.94;;;10.38;100.00
43681;BME280;29281;50.356;30.894;2023-04-02T06:31:44;99147.53;;;10.35;100.00
43681;BME280;29281;50.356;30.894;2023-04-02T06:32:52;99149.25;;;10.25;100.00
43681;BME280;29281;50.356;30.894;2023-04-02T06:33:56;99151.78;;;10.26;100.00
43681;BME280;29281;50.356;30.894;2023-04-02T06:35:01;99150.19;;;10.35;100.00
43681;BME280;29281;50.356;30.894;2023-04-02T06:36:05;99153.63;;;10.46;100.00
43681;BME280;29281;50.356;30.894;2023-04-02T06:37:29;99152.41;;;10.50;100.00
43681;BME280;29281;50.356;30.894;2023-04-02T06:38:31;99156.75;;;10.51;100.00
43681;BME280;29281;50.356;30.894;2023-04-02T06:39:35;99148.70;;;10.63;100.00
43681;BME280;29281;50.356;30.894;2023-04-02T06:40:45;99152.80;;;10.67;100.00
43681;BME280;29281;50.356;30.894;2023-04-02T06:43:34;99150.05;;;10.57;100.00
43681;BME280;29281;50.356;30.894;2023-04-02T06:44:41;99151.48;;;10.61;100.00
43681;BME280;29281;50.356;30.894;2023-04-02T06:46:07;99155.06;;;10.50;100.00
43681;BME280;29281;50.356;30.894;2023-04-02T06:48:37;99156.59;;;10.32;100.00
43681;BME280;29281;50.356;30.894;2023-04-02T06:50:00;99153.28;;;10.40;100.00
43681;BME280;29281;50.356;30.894;2023-04-02T06:51:05;99161.18;;;10.30;100.00
43681;BME280;29281;50.356;30.894;2023-04-02T06:52:15;99155.94;;;10.40;100.00
43681;BME280;29281;50.356;30.894;2023-04-02T06:54:27;99163.46;;;10.35;100.00
43681;BME280;29281;50.356;30.894;2023-04-02T06:57:42;99164.61;;;10.21;100.00
43681;BME280;29281;50.356;30.894;2023-04-02T06:58:48;99167.98;;;10.23;100.00
43681;BME280;29281;50.356;30.894;2023-04-02T06:59:51;99162.15;;;10.29;100.00
43681;BME280;29281;50.356;30.894;2023-04-02T07:00:57;99164.08;;;10.27;100.00
43681;BME280;29281;50.356;30.894;2023-04-02T07:02:25;99168.42;;;10.28;100.00
43681;BME280;29281;50.356;30.894;2023-04-02T07:03:30;99168.05;;;10.33;100.00
43681;BME280;29281;50.356;30.894;2023-04-02T07:04:35;99171.55;;;10.33;100.00
43681;BME280;29281;50.356;30.894;2023-04-02T07:05:38;99172.86;;;10.39;100.00
43681;BME280;29281;50.356;30.894;2023-04-02T07:06:45;99173.11;;;10.36;100.00
43681;BME280;29281;50.356;30.894;2023-04-02T07:07:50;99173.42;;;10.42;100.00
43681;BME280;29281;50.356;30.894;2023-04-02T07:08:54;99170.73;;;10.53;100.00
43681;BME280;29281;50.356;30.894;2023-04-02T07:10:00;99169.17;;;10.51;100.00
43681;BME280;29281;50.356;30.894;2023-04-02T07:11:04;99169.80;;;10.43;100.00
43681;BME280;29281;50.356;30.894;2023-04-02T07:12:10;99172.02;;;10.38;100.00
43681;BME280;29281;50.356;30.894;2023-04-02T07:13:18;99175.20;;;10.53;100.00
43681;BME280;29281;50.356;30.894;2023-04-02T07:14:21;99174.86;;;10.46;100.00
43681;BME280;29281;50.356;30.894;2023-04-02T07:15:26;99169.36;;;10.59;100.00
43681;BME280;29281;50.356;30.894;2023-04-02T07:16:31;99178.50;;;10.66;100.00
43681;BME280;29281;50.356;30.894;2023-04-02T07:17:36;99183.47;;;10.60;100.00